sensor_id;sensor_type;location;lat;lon;timestamp;P1;durP1;ratioP1;P2;durP2;ratioP2
27257;SDS011;62045;49.986;8.672;2023-01-15T00:03:40;5.97;;;2.10;;
27257;SDS011;62045;49.986;8.672;2023-01-15T00:08:41;5.05;;;2.22;;
27257;SDS011;62045;49.986;8.672;2023-01-15T00:13:43;5.68;;;2.70;;
27257;SDS011;62045;49.986;8.672;2023-01-15T00:18:48;5.72;;;2.10;;
27257;SDS011;62045;49.986;8.672;2023-01-15T00:23:49;5.60;;;2.28;;
27257;SDS011;62045;49.986;8.672;2023-01-15T00:28:51;6.65;;;2.13;;
27257;SDS011;62045;49.986;8.672;2023-01-15T00:33:52;6.05;;;2.65;;
27257;SDS011;62045;49.986;8.672;2023-01-15T00:38:53;5.75;;;2.17;;
27257;SDS011;62045;49.986;8.672;2023-01-15T00:43:55;5.13;;;2.30;;
27257;SDS011;62045;49.986;8.672;2023-01-15T00:48:56;4.97;;;2.00;;
27257;SDS011;62045;49.986;8.672;2023-01-15T00:53:57;5.20;;;2.22;;
27257;SDS011;62045;49.986;8.672;2023-01-15T00:59:01;5.15;;;1.60;;
27257;SDS011;62045;49.986;8.672;2023-01-15T01:04:03;5.43;;;1.85;;
27257;SDS011;62045;49.986;8.672;2023-01-15T01:09:03;5.03;;;2.03;;
27257;SDS011;62045;49.986;8.672;2023-01-15T01:14:06;4.88;;;2.38;;
27257;SDS011;62045;49.986;8.672;2023-01-15T01:19:09;4.88;;;1.80;;
27257;SDS011;62045;49.986;8.672;2023-01-15T01:24:12;8.63;;;3.30;;
27257;SDS011;62045;49.986;8.672;2023-01-15T01:29:18;5.40;;;2.00;;
27257;SDS011;62045;49.986;8.672;2023-01-15T01:34:20;5.03;;;2.08;;
27257;SDS011;62045;49.986;8.672;2023-01-15T01:39:20;4.68;;;1.83;;
27257;SDS011;62045;49.986;8.672;2023-01-15T01:50:02;3.60;;;1.35;;
27257;SDS011;62045;49.986;8.672;2023-01-15T01:55:08;4.22;;;1.55;;
27257;SDS011;62045;49.986;8.672;2023-01-15T02:00:11;3.85;;;1.58;;
27257;SDS011;62045;49.986;8.672;2023-01-15T02:05:19;4.30;;;1.80;;
27257;SDS011;62045;49.986;8.672;2023-01-15T02:10:24;6.07;;;1.92;;
27257;SDS011;62045;49.986;8.672;2023-01-15T02:15:28;3.95;;;1.80;;
27257;SDS011;62045;49.986;8.672;2023-01-15T02:20:34;4.28;;;1.38;;
27257;SDS011;62045;49.986;8.672;2023-01-15T02:25:43;3.92;;;1.75;;
27257;SDS011;62045;49.986;8.672;2023-01-15T02:31:11;3.37;;;1.70;;
27257;SDS011;62045;49.986;8.672;2023-01-15T02:36:17;4.15;;;1.38;;
27257;SDS011;62045;49.986;8.672;2023-01-15T02:41:27;3.78;;;1.30;;
27257;SDS011;62045;49.986;8.672;2023-01-15T02:46:33;2.78;;;1.02;;
27257;SDS011;62045;49.986;8.672;2023-01-15T02:51:41;3.60;;;2.00;;
27257;SDS011;62045;49.986;8.672;2023-01-15T02:56:46;2.80;;;1.58;;
27257;SDS011;62045;49.986;8.672;2023-01-15T03:01:51;3.70;;;1.20;;
27257;SDS011;62045;49.986;8.672;2023-01-15T03:06:58;2.38;;;1.05;;
27257;SDS011;62045;49.986;8.672;2023-01-15T03:12:07;3.47;;;1.15;;
27257;SDS011;62045;49.986;8.672;2023-01-15T03:17:18;2.70;;;1.33;;
27257;SDS011;62045;49.986;8.672;2023-01-15T03:22:22;2.55;;;1.05;;
27257;SDS011;62045;49.986;8.672;2023-01-15T03:27:27;2.90;;;1.27;;
27257;SDS011;62045;49.986;8.672;2023-01-15T03:32:31;3.13;;;1.00;;
27257;SDS011;62045;49.986;8.672;2023-01-15T03:37:32;2.10;;;1.00;;
27257;SDS011;62045;49.986;8.672;2023-01-15T03:42:39;2.25;;;1.02;;
27257;SDS011;62045;49.986;8.672;2023-01-15T03:47:51;4.10;;;1.20;;
27257;SDS011;62045;49.986;8.672;2023-01-15T03:53:01;2.88;;;1.00;;
27257;SDS011;62045;49.986;8.672;2023-01-15T03:58:08;1.98;;;0.80;;
27257;SDS011;62045;49.986;8.672;2023-01-15T04:03:15;2.10;;;0.95;;
27257;SDS011;62045;49.986;8.672;2023-01-15T04:08:19;2.75;;;1.20;;
27257;SDS011;62045;49.986;8.672;2023-01-15T04:18:26;1.98;;;0.82;;
27257;SDS011;62045;49.986;8.672;2023-01-15T04:28:29;2.20;;;1.02;;
27257;SDS011;62045;49.986;8.672;2023-01-15T04:33:31;1.83;;;0.80;;
27257;SDS011;62045;49.986;8.672;2023-01-15T04:38:32;2.25;;;0.80;;
27257;SDS011;62045;49.986;8.672;2023-01-15T04:43:33;1.77;;;0.50;;
27257;SDS011;62045;49.986;8.672;2023-01-15T04:48:35;2.83;;;0.80;;
27257;SDS011;62045;49.986;8.672;2023-01-15T04:53:37;2.22;;;0.80;;
27257;SDS011;62045;49.986;8.672;2023-01-15T04:58:38;2.42;;;1.33;;
27257;SDS011;62045;49.986;8.672;2023-01-15T05:03:40;1.80;;;0.80;;
27257;SDS011;62045;49.986;8.672;2023-01-15T05:08:41;1.83;;;0.80;;
27257;SDS011;62045;49.986;8.672;2023-01-15T05:13:42;2.75;;;0.82;;
27257;SDS011;62045;49.986;8.672;2023-01-15T05:18:45;1.98;;;0.60;;
27257;SDS011;62045;49.986;8.672;2023-01-15T05:23:46;1.60;;;0.60;;
27257;SDS011;62045;49.986;8.672;2023-01-15T05:28:47;2.55;;;0.90;;
27257;SDS011;62045;49.986;8.672;2023-01-15T05:33:50;1.38;;;0.57;;
27257;SDS011;62045;49.986;8.672;2023-01-15T05:38:52;1.92;;;0.80;;
27257;SDS011;62045;49.986;8.672;2023-01-15T05:43:53;1.38;;;0.70;;
27257;SDS011;62045;49.986;8.672;2023-01-15T05:48:59;1.70;;;0.80;;
27257;SDS011;62045;49.986;8.672;2023-01-15T05:54:00;2.08;;;0.90;;
27257;SDS011;62045;49.986;8.672;2023-01-15T05:59:01;1.77;;;0.90;;
27257;SDS011;62045;49.986;8.672;2023-01-15T06:04:05;1.27;;;0.55;;
27257;SDS011;62045;49.986;8.672;2023-01-15T06:09:06;1.27;;;0.57;;
27257;SDS011;62045;49.986;8.672;2023-01-15T06:14:07;1.67;;;0.60;;
27257;SDS011;62045;49.986;8.672;2023-01-15T06:19:11;1.75;;;0.60;;
27257;SDS011;62045;49.986;8.672;2023-01-15T06:24:12;1.55;;;0.63;;
27257;SDS011;62045;49.986;8.672;2023-01-15T06:29:13;1.10;;;0.52;;
27257;SDS011;62045;49.986;8.672;2023-01-15T06:34:15;2.22;;;0.70;;
27257;SDS011;62045;49.986;8.672;2023-01-15T06:39:16;1.73;;;0.47;;
27257;SDS011;62045;49.986;8.672;2023-01-15T06:44:17;1.90;;;0.70;;
27257;SDS011;62045;49.986;8.672;2023-01-15T06:49:19;0.70;;;0.32;;
27257;SDS011;62045;49.986;8.672;2023-01-15T06:54:20;1.35;;;0.70;;
27257;SDS011;62045;49.986;8.672;2023-01-15T06:59:21;1.50;;;0.50;;
27257;SDS011;62045;49.986;8.672;2023-01-15T07:04:23;1.35;;;0.50;;
27257;SDS011;62045;49.986;8.672;2023-01-15T07:09:23;1.33;;;0.55;;
27257;SDS011;62045;49.986;8.672;2023-01-15T07:14:25;1.00;;;0.40;;
27257;SDS011;62045;49.986;8.672;2023-01-15T07:19:27;1.33;;;0.55;;
27257;SDS011;62045;49.986;8.672;2023-01-15T07:24:28;1.20;;;0.57;;
27257;SDS011;62045;49.986;8.672;2023-01-15T07:29:29;0.95;;;0.40;;
27257;SDS011;62045;49.986;8.672;2023-01-15T07:34:31;0.73;;;0.20;;
27257;SDS011;62045;49.986;8.672;2023-01-15T07:39:31;1.45;;;0.50;;
27257;SDS011;62045;49.986;8.672;2023-01-15T07:44:32;1.63;;;0.63;;
27257;SDS011;62045;49.986;8.672;2023-01-15T07:49:34;0.73;;;0.30;;
27257;SDS011;62045;49.986;8.672;2023-01-15T07:54:35;0.95;;;0.30;;
27257;SDS011;62045;49.986;8.672;2023-01-15T07:59:36;1.27;;;0.43;;
27257;SDS011;62045;49.986;8.672;2023-01-15T08:04:38;0.88;;;0.40;;
27257;SDS011;62045;49.986;8.672;2023-01-15T08:09:39;1.40;;;0.50;;
27257;SDS011;62045;49.986;8.672;2023-01-15T08:14:40;0.98;;;0.30;;
27257;SDS011;62045;49.986;8.672;2023-01-15T08:19:42;0.98;;;0.35;;
27257;SDS011;62045;49.986;8.672;2023-01-15T08:24:43;1.20;;;0.43;;
27257;SDS011;62045;49.986;8.672;2023-01-15T08:29:43;1.02;;;0.65;;
27257;SDS011;62045;49.986;8.672;2023-01-15T08:34:45;0.80;;;0.22;;
27257;SDS011;62045;49.986;8.672;2023-01-15T08:39:46;1.20;;;0.35;;
27257;SDS011;62045;49.986;8.672;2023-01-15T08:44:47;1.08;;;0.32;;
27257;SDS011;62045;49.986;8.672;2023-01-15T08:49:49;0.77;;;0.35;;
27257;SDS011;62045;49.986;8.672;2023-01-15T08:54:50;0.80;;;0.38;;
27257;SDS011;62045;49.986;8.672;2023-01-15T08:59:50;1.13;;;0.45;;
27257;SDS011;62045;49.986;8.672;2023-01-15T09:04:52;0.52;;;0.28;;
27257;SDS011;62045;49.986;8.672;2023-01-15T09:09:53;1.10;;;0.40;;
27257;SDS011;62045;49.986;8.672;2023-01-15T09:14:54;1.08;;;0.32;;
27257;SDS011;62045;49.986;8.672;2023-01-15T09:19:56;1.10;;;0.40;;
27257;SDS011;62045;49.986;8.672;2023-01-15T09:24:57;1.05;;;0.40;;
27257;SDS011;62045;49.986;8.672;2023-01-15T09:29:58;1.23;;;0.30;;
27257;SDS011;62045;49.986;8.672;2023-01-15T09:35:00;4.50;;;0.50;;
27257;SDS011;62045;49.986;8.672;2023-01-15T09:40:01;2.47;;;0.32;;
27257;SDS011;62045;49.986;8.672;2023-01-15T09:45:05;0.68;;;0.22;;
27257;SDS011;62045;49.986;8.672;2023-01-15T09:50:20;1.48;;;0.30;;
27257;SDS011;62045;49.986;8.672;2023-01-15T09:55:27;0.68;;;0.28;;
27257;SDS011;62045;49.986;8.672;2023-01-15T10:00:32;0.75;;;0.20;;
27257;SDS011;62045;49.986;8.672;2023-01-15T10:05:40;1.30;;;0.47;;
27257;SDS011;62045;49.986;8.672;2023-01-15T10:10:45;1.08;;;0.35;;
27257;SDS011;62045;49.986;8.672;2023-01-15T10:15:47;1.05;;;0.32;;
27257;SDS011;62045;49.986;8.672;2023-01-15T10:26:16;0.77;;;0.30;;
27257;SDS011;62045;49.986;8.672;2023-01-15T10:31:36;1.13;;;0.30;;
27257;SDS011;62045;49.986;8.672;2023-01-15T10:36:52;0.52;;;0.32;;
27257;SDS011;62045;49.986;8.672;2023-01-15T10:41:59;0.60;;;0.20;;
27257;SDS011;62045;49.986;8.672;2023-01-15T10:47:11;0.50;;;0.20;;
27257;SDS011;62045;49.986;8.672;2023-01-15T10:52:21;1.75;;;0.32;;
27257;SDS011;62045;49.986;8.672;2023-01-15T10:57:29;0.45;;;0.20;;
27257;SDS011;62045;49.986;8.672;2023-01-15T11:02:41;0.40;;;0.25;;
27257;SDS011;62045;49.986;8.672;2023-01-15T11:07:46;0.57;;;0.30;;
27257;SDS011;62045;49.986;8.672;2023-01-15T11:12:49;0.85;;;0.20;;
27257;SDS011;62045;49.986;8.672;2023-01-15T11:17:51;2.03;;;0.35;;
27257;SDS011;62045;49.986;8.672;2023-01-15T11:22:54;2.25;;;0.40;;
27257;SDS011;62045;49.986;8.672;2023-01-15T11:27:56;7.18;;;0.50;;
27257;SDS011;62045;49.986;8.672;2023-01-15T11:32:59;367.17;;;185.07;;
27257;SDS011;62045;49.986;8.672;2023-01-15T11:38:06;356.45;;;219.18;;
27257;SDS011;62045;49.986;8.672;2023-01-15T11:43:17;230.82;;;137.07;;
27257;SDS011;62045;49.986;8.672;2023-01-15T11:48:21;173.82;;;98.18;;
27257;SDS011;62045;49.986;8.672;2023-01-15T11:53:24;103.40;;;60.60;;
27257;SDS011;62045;49.986;8.672;2023-01-15T11:58:30;65.50;;;38.95;;
27257;SDS011;62045;49.986;8.672;2023-01-15T12:03:33;43.28;;;24.15;;
27257;SDS011;62045;49.986;8.672;2023-01-15T12:08:41;28.60;;;15.90;;
27257;SDS011;62045;49.986;8.672;2023-01-15T12:13:47;21.73;;;8.32;;
27257;SDS011;62045;49.986;8.672;2023-01-15T12:18:58;18.15;;;6.47;;
27257;SDS011;62045;49.986;8.672;2023-01-15T12:24:15;10.93;;;5.28;;
27257;SDS011;62045;49.986;8.672;2023-01-15T12:29:30;9.90;;;2.58;;
27257;SDS011;62045;49.986;8.672;2023-01-15T12:34:38;4.50;;;1.98;;
27257;SDS011;62045;49.986;8.672;2023-01-15T12:39:46;2.97;;;1.50;;
27257;SDS011;62045;49.986;8.672;2023-01-15T12:44:50;5.47;;;1.67;;
27257;SDS011;62045;49.986;8.672;2023-01-15T12:49:55;4.43;;;1.83;;
27257;SDS011;62045;49.986;8.672;2023-01-15T12:55:08;3.20;;;1.30;;
27257;SDS011;62045;49.986;8.672;2023-01-15T13:00:14;3.00;;;1.13;;
27257;SDS011;62045;49.986;8.672;2023-01-15T13:05:19;2.25;;;0.90;;
27257;SDS011;62045;49.986;8.672;2023-01-15T13:10:23;2.60;;;0.90;;
27257;SDS011;62045;49.986;8.672;2023-01-15T13:15:26;3.65;;;1.00;;
27257;SDS011;62045;49.986;8.672;2023-01-15T13:20:35;2.75;;;0.98;;
27257;SDS011;62045;49.986;8.672;2023-01-15T13:25:46;3.53;;;0.98;;
27257;SDS011;62045;49.986;8.672;2023-01-15T13:31:05;4.38;;;0.73;;
27257;SDS011;62045;49.986;8.672;2023-01-15T13:36:13;3.40;;;0.70;;
27257;SDS011;62045;49.986;8.672;2023-01-15T13:41:18;2.13;;;0.60;;
27257;SDS011;62045;49.986;8.672;2023-01-15T13:46:22;2.65;;;0.98;;
27257;SDS011;62045;49.986;8.672;2023-01-15T13:51:25;1.58;;;0.60;;
27257;SDS011;62045;49.986;8.672;2023-01-15T13:56:30;2.55;;;0.68;;
27257;SDS011;62045;49.986;8.672;2023-01-15T14:01:32;2.20;;;0.70;;
27257;SDS011;62045;49.986;8.672;2023-01-15T14:06:35;2.88;;;0.75;;
27257;SDS011;62045;49.986;8.672;2023-01-15T14:11:39;1.48;;;0.63;;
27257;SDS011;62045;49.986;8.672;2023-01-15T14:16:50;3.72;;;0.82;;
27257;SDS011;62045;49.986;8.672;2023-01-15T14:22:12;1.80;;;0.50;;
27257;SDS011;62045;49.986;8.672;2023-01-15T14:27:39;1.48;;;0.50;;
27257;SDS011;62045;49.986;8.672;2023-01-15T14:32:55;2.30;;;0.52;;
27257;SDS011;62045;49.986;8.672;2023-01-15T14:38:04;4.05;;;0.57;;
27257;SDS011;62045;49.986;8.672;2023-01-15T14:43:09;2.90;;;0.40;;
27257;SDS011;62045;49.986;8.672;2023-01-15T14:48:17;6.68;;;1.50;;
27257;SDS011;62045;49.986;8.672;2023-01-15T14:53:22;2.75;;;0.80;;
27257;SDS011;62045;49.986;8.672;2023-01-15T14:58:33;1.83;;;0.68;;
27257;SDS011;62045;49.986;8.672;2023-01-15T15:03:37;1.75;;;0.50;;
27257;SDS011;62045;49.986;8.672;2023-01-15T15:08:44;1.85;;;0.70;;
27257;SDS011;62045;49.986;8.672;2023-01-15T15:13:47;2.80;;;0.70;;
27257;SDS011;62045;49.986;8.672;2023-01-15T15:18:51;5.00;;;0.77;;
27257;SDS011;62045;49.986;8.672;2023-01-15T15:23:58;2.65;;;0.55;;
27257;SDS011;62045;49.986;8.672;2023-01-15T15:29:09;2.08;;;0.57;;
27257;SDS011;62045;49.986;8.672;2023-01-15T15:34:13;1.73;;;0.55;;
27257;SDS011;62045;49.986;8.672;2023-01-15T15:39:18;1.35;;;0.40;;
27257;SDS011;62045;49.986;8.672;2023-01-15T15:44:24;0.90;;;0.40;;
27257;SDS011;62045;49.986;8.672;2023-01-15T15:49:37;1.02;;;0.40;;
27257;SDS011;62045;49.986;8.672;2023-01-15T15:54:38;1.73;;;0.47;;
27257;SDS011;62045;49.986;8.672;2023-01-15T15:59:43;2.17;;;0.55;;
27257;SDS011;62045;49.986;8.672;2023-01-15T16:04:46;3.65;;;0.38;;
27257;SDS011;62045;49.986;8.672;2023-01-15T16:09:48;1.88;;;0.50;;
27257;SDS011;62045;49.986;8.672;2023-01-15T16:14:51;2.13;;;0.70;;
27257;SDS011;62045;49.986;8.672;2023-01-15T16:24:55;1.65;;;0.63;;
27257;SDS011;62045;49.986;8.672;2023-01-15T16:29:58;2.28;;;0.63;;
27257;SDS011;62045;49.986;8.672;2023-01-15T16:35:02;1.75;;;0.63;;
27257;SDS011;62045;49.986;8.672;2023-01-15T16:40:06;3.40;;;0.60;;
27257;SDS011;62045;49.986;8.672;2023-01-15T16:45:20;1.58;;;0.40;;
27257;SDS011;62045;49.986;8.672;2023-01-15T16:50:25;5.75;;;2.00;;
27257;SDS011;62045;49.986;8.672;2023-01-15T17:00:37;6.45;;;1.13;;
27257;SDS011;62045;49.986;8.672;2023-01-15T17:10:40;5.07;;;1.25;;
27257;SDS011;62045;49.986;8.672;2023-01-15T17:16:13;7.20;;;1.77;;
27257;SDS011;62045;49.986;8.672;2023-01-15T17:21:16;8.25;;;1.80;;
27257;SDS011;62045;49.986;8.672;2023-01-15T17:26:20;7.30;;;1.30;;
27257;SDS011;62045;49.986;8.672;2023-01-15T17:31:24;6.75;;;1.77;;
27257;SDS011;62045;49.986;8.672;2023-01-15T17:36:26;8.18;;;1.90;;
27257;SDS011;62045;49.986;8.672;2023-01-15T17:41:28;3.50;;;1.10;;
27257;SDS011;62045;49.986;8.672;2023-01-15T17:46:30;6.78;;;1.20;;
27257;SDS011;62045;49.986;8.672;2023-01-15T17:51:31;4.07;;;1.27;;
27257;SDS011;62045;49.986;8.672;2023-01-15T17:56:32;4.90;;;1.40;;
27257;SDS011;62045;49.986;8.672;2023-01-15T18:01:34;4.20;;;1.27;;
27257;SDS011;62045;49.986;8.672;2023-01-15T18:06:38;5.32;;;1.38;;
27257;SDS011;62045;49.986;8.672;2023-01-15T18:11:42;5.68;;;1.13;;
27257;SDS011;62045;49.986;8.672;2023-01-15T18:16:44;3.47;;;1.10;;
27257;SDS011;62045;49.986;8.672;2023-01-15T18:21:45;3.75;;;0.93;;
27257;SDS011;62045;49.986;8.672;2023-01-15T18:26:45;5.53;;;1.45;;
27257;SDS011;62045;49.986;8.672;2023-01-15T18:31:48;3.85;;;1.08;;
27257;SDS011;62045;49.986;8.672;2023-01-15T18:36:49;3.00;;;0.85;;
27257;SDS011;62045;49.986;8.672;2023-01-15T18:41:49;3.45;;;1.05;;
27257;SDS011;62045;49.986;8.672;2023-01-15T18:46:52;2.78;;;1.10;;
27257;SDS011;62045;49.986;8.672;2023-01-15T18:51:55;3.28;;;0.98;;
27257;SDS011;62045;49.986;8.672;2023-01-15T18:56:56;2.45;;;0.80;;
27257;SDS011;62045;49.986;8.672;2023-01-15T19:01:58;3.25;;;0.90;;
27257;SDS011;62045;49.986;8.672;2023-01-15T19:06:59;5.00;;;1.25;;
27257;SDS011;62045;49.986;8.672;2023-01-15T19:12:00;2.85;;;0.90;;
27257;SDS011;62045;49.986;8.672;2023-01-15T19:17:03;3.03;;;1.00;;
27257;SDS011;62045;49.986;8.672;2023-01-15T19:22:04;3.03;;;1.00;;
27257;SDS011;62045;49.986;8.672;2023-01-15T19:27:05;3.35;;;1.00;;
27257;SDS011;62045;49.986;8.672;2023-01-15T19:32:07;3.85;;;0.90;;
27257;SDS011;62045;49.986;8.672;2023-01-15T19:37:08;3.13;;;0.95;;
27257;SDS011;62045;49.986;8.672;2023-01-15T19:42:09;4.35;;;0.93;;
27257;SDS011;62045;49.986;8.672;2023-01-15T19:47:13;5.45;;;1.20;;
27257;SDS011;62045;49.986;8.672;2023-01-15T19:52:20;2.97;;;0.80;;
27257;SDS011;62045;49.986;8.672;2023-01-15T19:57:21;2.95;;;0.90;;
27257;SDS011;62045;49.986;8.672;2023-01-15T20:02:23;4.00;;;0.98;;
27257;SDS011;62045;49.986;8.672;2023-01-15T20:07:24;3.50;;;0.98;;
27257;SDS011;62045;49.986;8.672;2023-01-15T20:12:25;3.78;;;1.20;;
27257;SDS011;62045;49.986;8.672;2023-01-15T20:17:27;2.80;;;0.80;;
27257;SDS011;62045;49.986;8.672;2023-01-15T20:22:28;2.20;;;0.60;;
27257;SDS011;62045;49.986;8.672;2023-01-15T20:27:30;2.25;;;0.60;;
27257;SDS011;62045;49.986;8.672;2023-01-15T20:32:33;2.05;;;0.80;;
27257;SDS011;62045;49.986;8.672;2023-01-15T20:37:34;2.78;;;0.80;;
27257;SDS011;62045;49.986;8.672;2023-01-15T20:42:35;2.35;;;0.70;;
27257;SDS011;62045;49.986;8.672;2023-01-15T20:47:38;2.25;;;0.63;;
27257;SDS011;62045;49.986;8.672;2023-01-15T20:52:43;2.50;;;0.95;;
27257;SDS011;62045;49.986;8.672;2023-01-15T20:57:44;2.60;;;0.80;;
27257;SDS011;62045;49.986;8.672;2023-01-15T21:02:46;1.40;;;0.52;;
27257;SDS011;62045;49.986;8.672;2023-01-15T21:07:47;3.58;;;1.52;;
27257;SDS011;62045;49.986;8.672;2023-01-15T21:12:48;3.30;;;0.80;;
27257;SDS011;62045;49.986;8.672;2023-01-15T21:17:53;2.05;;;0.70;;
27257;SDS011;62045;49.986;8.672;2023-01-15T21:22:54;2.60;;;0.80;;
27257;SDS011;62045;49.986;8.672;2023-01-15T21:27:54;2.72;;;1.10;;
27257;SDS011;62045;49.986;8.672;2023-01-15T21:32:56;2.20;;;0.40;;
27257;SDS011;62045;49.986;8.672;2023-01-15T21:37:57;2.15;;;0.82;;
27257;SDS011;62045;49.986;8.672;2023-01-15T21:42:58;2.05;;;0.68;;
27257;SDS011;62045;49.986;8.672;2023-01-15T21:48:00;2.30;;;0.68;;
27257;SDS011;62045;49.986;8.672;2023-01-15T21:53:00;2.47;;;0.80;;
27257;SDS011;62045;49.986;8.672;2023-01-15T21:58:01;2.53;;;0.70;;
27257;SDS011;62045;49.986;8.672;2023-01-15T22:03:03;3.05;;;0.70;;
27257;SDS011;62045;49.986;8.672;2023-01-15T22:08:04;1.75;;;0.60;;
27257;SDS011;62045;49.986;8.672;2023-01-15T22:13:05;2.40;;;0.60;;
27257;SDS011;62045;49.986;8.672;2023-01-15T22:18:07;2.33;;;0.65;;
27257;SDS011;62045;49.986;8.672;2023-01-15T22:23:07;2.90;;;0.98;;
27257;SDS011;62045;49.986;8.672;2023-01-15T22:28:08;2.35;;;0.68;;
27257;SDS011;62045;49.986;8.672;2023-01-15T22:33:10;2.08;;;0.55;;
27257;SDS011;62045;49.986;8.672;2023-01-15T22:38:11;2.15;;;0.55;;
27257;SDS011;62045;49.986;8.672;2023-01-15T22:43:11;1.67;;;0.65;;
27257;SDS011;62045;49.986;8.672;2023-01-15T22:48:14;2.75;;;0.60;;
27257;SDS011;62045;49.986;8.672;2023-01-15T22:53:14;2.28;;;0.55;;
27257;SDS011;62045;49.986;8.672;2023-01-15T22:58:15;1.73;;;0.50;;
27257;SDS011;62045;49.986;8.672;2023-01-15T23:03:17;2.30;;;0.60;;
27257;SDS011;62045;49.986;8.672;2023-01-15T23:08:18;2.13;;;0.70;;
27257;SDS011;62045;49.986;8.672;2023-01-15T23:13:18;1.35;;;0.47;;
27257;SDS011;62045;49.986;8.672;2023-01-15T23:18:20;2.38;;;0.60;;
27257;SDS011;62045;49.986;8.672;2023-01-15T23:23:21;2.05;;;0.73;;
27257;SDS011;62045;49.986;8.672;2023-01-15T23:28:22;1.92;;;0.60;;
27257;SDS011;62045;49.986;8.672;2023-01-15T23:33:24;2.00;;;0.82;;
27257;SDS011;62045;49.986;8.672;2023-01-15T23:38:25;1.70;;;0.60;;
27257;SDS011;62045;49.986;8.672;2023-01-15T23:43:26;1.25;;;0.57;;
27257;SDS011;62045;49.986;8.672;2023-01-15T23:48:28;2.03;;;0.57;;
27257;SDS011;62045;49.986;8.672;2023-01-15T23:53:29;2.22;;;0.60;;
27257;SDS011;62045;49.986;8.672;2023-01-15T23:58:30;1.95;;;0.68;;
